sensor_id;sensor_type;location;lat;lon;timestamp;pressure;altitude;pressure_sealevel;temperature;humidity
69574;BME280;62840;52.366;5.980;2023-02-02T00:00:19;101896.38;;;6.82;74.20
69574;BME280;62840;52.366;5.980;2023-02-02T00:02:47;101896.22;;;6.85;74.11
69574;BME280;62840;52.366;5.980;2023-02-02T00:05:13;101897.00;;;6.87;74.32
69574;BME280;62840;52.366;5.980;2023-02-02T00:07:39;101896.06;;;6.88;74.45
69574;BME280;62840;52.366;5.980;2023-02-02T00:10:06;101895.91;;;6.91;74.28
69574;BME280;62840;52.366;5.980;2023-02-02T00:12:32;101893.09;;;6.95;74.52
69574;BME280;62840;52.366;5.980;2023-02-02T00:14:58;101893.88;;;6.97;74.39
69574;BME280;62840;52.366;5.980;2023-02-02T00:17:24;101900.91;;;6.98;74.47
69574;BME280;62840;52.366;5.980;2023-02-02T00:19:52;101897.31;;;6.99;74.42
69574;BME280;62840;52.366;5.980;2023-02-02T00:22:18;101895.44;;;7.01;74.33
69574;BME280;62840;52.366;5.980;2023-02-02T00:24:43;101897.16;;;7.02;74.37
69574;BME280;62840;52.366;5.980;2023-02-02T00:27:09;101891.88;;;7.02;74.48
69574;BME280;62840;52.366;5.980;2023-02-02T00:29:35;101893.56;;;7.03;74.43
69574;BME280;62840;52.366;5.980;2023-02-02T00:32:00;101905.91;;;7.04;74.33
69574;BME280;62840;52.366;5.980;2023-02-02T00:34:26;101895.13;;;7.07;74.27
69574;BME280;62840;52.366;5.980;2023-02-02T00:36:54;101891.53;;;7.08;74.31
69574;BME280;62840;52.366;5.980;2023-02-02T00:39:21;101899.41;;;7.09;74.41
69574;BME280;62840;52.366;5.980;2023-02-02T00:41:49;101897.63;;;7.10;74.52
69574;BME280;62840;52.366;5.980;2023-02-02T00:44:14;101903.72;;;7.12;74.58
69574;BME280;62840;52.366;5.980;2023-02-02T00:46:40;101894.06;;;7.11;74.40
69574;BME280;62840;52.366;5.980;2023-02-02T00:49:07;101891.22;;;7.14;74.46
69574;BME280;62840;52.366;5.980;2023-02-02T00:51:34;101899.91;;;7.18;74.42
69574;BME280;62840;52.366;5.980;2023-02-02T00:54:03;101908.53;;;7.21;74.37
69574;BME280;62840;52.366;5.980;2023-02-02T00:56:29;101906.66;;;7.23;74.33
69574;BME280;62840;52.366;5.980;2023-02-02T00:58:55;101905.75;;;7.24;74.57
69574;BME280;62840;52.366;5.980;2023-02-02T01:01:21;101903.94;;;7.25;74.44
69574;BME280;62840;52.366;5.980;2023-02-02T01:03:47;101910.09;;;7.25;74.41
69574;BME280;62840;52.366;5.980;2023-02-02T01:06:14;101899.31;;;7.28;74.20
69574;BME280;62840;52.366;5.980;2023-02-02T01:08:40;101890.38;;;7.31;74.30
69574;BME280;62840;52.366;5.980;2023-02-02T01:11:09;101891.22;;;7.31;74.02
69574;BME280;62840;52.366;5.980;2023-02-02T01:13:35;101892.13;;;7.30;74.24
69574;BME280;62840;52.366;5.980;2023-02-02T01:16:02;101904.50;;;7.31;74.19
69574;BME280;62840;52.366;5.980;2023-02-02T01:18:29;101909.78;;;7.31;74.24
69574;BME280;62840;52.366;5.980;2023-02-02T01:20:56;101915.09;;;7.31;74.22
69574;BME280;62840;52.366;5.980;2023-02-02T01:23:22;101909.78;;;7.31;74.37
69574;BME280;62840;52.366;5.980;2023-02-02T01:25:52;101911.50;;;7.32;74.27
69574;BME280;62840;52.366;5.980;2023-02-02T01:28:21;101912.28;;;7.34;74.41
69574;BME280;62840;52.366;5.980;2023-02-02T01:30:49;101904.31;;;7.34;74.08
69574;BME280;62840;52.366;5.980;2023-02-02T01:33:15;101906.06;;;7.36;74.04
69574;BME280;62840;52.366;5.980;2023-02-02T01:35:45;101914.78;;;7.38;74.23
69574;BME280;62840;52.366;5.980;2023-02-02T01:38:11;101912.88;;;7.40;73.95
69574;BME280;62840;52.366;5.980;2023-02-02T01:40:43;101916.34;;;7.42;74.02
69574;BME280;62840;52.366;5.980;2023-02-02T01:43:21;101910.19;;;7.41;73.94
69574;BME280;62840;52.366;5.980;2023-02-02T01:45:49;101907.47;;;7.43;74.07
69574;BME280;62840;52.366;5.980;2023-02-02T01:48:15;101902.16;;;7.43;74.02
69574;BME280;62840;52.366;5.980;2023-02-02T01:50:43;101909.19;;;7.44;73.98
69574;BME280;62840;52.366;5.980;2023-02-02T01:53:10;101912.78;;;7.43;73.89
69574;BME280;62840;52.366;5.980;2023-02-02T01:55:38;101907.47;;;7.43;73.87
69574;BME280;62840;52.366;5.980;2023-02-02T01:58:09;101916.28;;;7.43;73.75
69574;BME280;62840;52.366;5.980;2023-02-02T02:00:43;101916.34;;;7.42;73.75
69574;BME280;62840;52.366;5.980;2023-02-02T02:03:12;101909.34;;;7.41;73.77
69574;BME280;62840;52.366;5.980;2023-02-02T02:05:42;101909.34;;;7.41;73.62
69574;BME280;62840;52.366;5.980;2023-02-02T02:08:16;101921.66;;;7.42;73.90
69574;BME280;62840;52.366;5.980;2023-02-02T02:10:43;101919.00;;;7.42;73.74
69574;BME280;62840;52.366;5.980;2023-02-02T02:13:10;101919.78;;;7.44;73.74
69574;BME280;62840;52.366;5.980;2023-02-02T02:15:53;101916.22;;;7.45;73.68
69574;BME280;62840;52.366;5.980;2023-02-02T02:18:41;101917.91;;;7.46;73.49
69574;BME280;62840;52.366;5.980;2023-02-02T02:21:24;101914.34;;;7.47;73.40
69574;BME280;62840;52.366;5.980;2023-02-02T02:27:43;101903.88;;;7.44;73.23
69574;BME280;62840;52.366;5.980;2023-02-02T02:30:50;101904.72;;;7.44;73.23
69574;BME280;62840;52.366;5.980;2023-02-02T02:33:46;101913.69;;;7.42;72.89
69574;BME280;62840;52.366;5.980;2023-02-02T02:36:27;101907.53;;;7.41;73.17
69574;BME280;62840;52.366;5.980;2023-02-02T02:39:07;101905.75;;;7.42;72.99
69574;BME280;62840;52.366;5.980;2023-02-02T02:41:42;101907.47;;;7.43;73.21
69574;BME280;62840;52.366;5.980;2023-02-02T02:44:15;101903.09;;;7.42;73.16
69574;BME280;62840;52.366;5.980;2023-02-02T02:46:44;101899.50;;;7.43;73.15
69574;BME280;62840;52.366;5.980;2023-02-02T02:49:14;101904.72;;;7.44;73.35
69574;BME280;62840;52.366;5.980;2023-02-02T02:51:43;101905.59;;;7.45;73.44
69574;BME280;62840;52.366;5.980;2023-02-02T02:54:11;101909.03;;;7.47;73.61
69574;BME280;62840;52.366;5.980;2023-02-02T02:56:47;101912.47;;;7.49;73.36
69574;BME280;62840;52.366;5.980;2023-02-02T02:59:37;101916.03;;;7.48;73.58
69574;BME280;62840;52.366;5.980;2023-02-02T03:02:25;101915.88;;;7.51;73.61
69574;BME280;62840;52.366;5.980;2023-02-02T03:05:09;101922.13;;;7.50;73.70
69574;BME280;62840;52.366;5.980;2023-02-02T03:07:49;101928.22;;;7.52;73.85
69574;BME280;62840;52.366;5.980;2023-02-02T03:10:23;101922.06;;;7.51;73.97
69574;BME280;62840;52.366;5.980;2023-02-02T03:12:54;101924.78;;;7.50;74.14
69574;BME280;62840;52.366;5.980;2023-02-02T03:15:21;101933.53;;;7.52;74.17
69574;BME280;62840;52.366;5.980;2023-02-02T03:17:49;101931.78;;;7.51;74.30
69574;BME280;62840;52.366;5.980;2023-02-02T03:20:20;101939.75;;;7.51;74.36
69574;BME280;62840;52.366;5.980;2023-02-02T03:22:46;101937.09;;;7.51;74.46
69574;BME280;62840;52.366;5.980;2023-02-02T03:25:12;101937.09;;;7.51;74.75
69574;BME280;62840;52.366;5.980;2023-02-02T03:27:38;101928.22;;;7.52;74.62
69574;BME280;62840;52.366;5.980;2023-02-02T03:30:06;101922.97;;;7.50;74.82
69574;BME280;62840;52.366;5.980;2023-02-02T03:32:35;101915.19;;;7.47;74.76
69574;BME280;62840;52.366;5.980;2023-02-02T03:35:01;101910.72;;;7.48;74.93
69574;BME280;62840;52.366;5.980;2023-02-02T03:37:29;101910.72;;;7.48;74.81
69574;BME280;62840;52.366;5.980;2023-02-02T03:39:55;101903.72;;;7.47;75.00
69574;BME280;62840;52.366;5.980;2023-02-02T03:42:21;101898.41;;;7.47;74.89
69574;BME280;62840;52.366;5.980;2023-02-02T03:44:47;101898.41;;;7.47;74.91
69574;BME280;62840;52.366;5.980;2023-02-02T03:47:12;101905.44;;;7.48;74.90
69574;BME280;62840;52.366;5.980;2023-02-02T03:49:38;101907.22;;;7.47;74.86
69574;BME280;62840;52.366;5.980;2023-02-02T03:52:04;101909.81;;;7.49;74.97
69574;BME280;62840;52.366;5.980;2023-02-02T03:54:33;101902.69;;;7.49;75.18
69574;BME280;62840;52.366;5.980;2023-02-02T03:56:59;101897.41;;;7.49;75.21
69574;BME280;62840;52.366;5.980;2023-02-02T03:59:25;101899.09;;;7.50;75.15
69574;BME280;62840;52.366;5.980;2023-02-02T04:01:50;101900.13;;;7.48;75.23
69574;BME280;62840;52.366;5.980;2023-02-02T04:04:16;101900.97;;;7.48;75.38
69574;BME280;62840;52.366;5.980;2023-02-02T04:06:42;101896.53;;;7.49;75.34
69574;BME280;62840;52.366;5.980;2023-02-02T04:09:08;101898.25;;;7.50;75.31
69574;BME280;62840;52.366;5.980;2023-02-02T04:11:36;101891.06;;;7.52;75.40
69574;BME280;62840;52.366;5.980;2023-02-02T04:14:02;101885.56;;;7.55;75.58
69574;BME280;62840;52.366;5.980;2023-02-02T04:16:27;101884.66;;;7.56;75.51
69574;BME280;62840;52.366;5.980;2023-02-02T04:18:53;101892.63;;;7.56;75.52
69574;BME280;62840;52.366;5.980;2023-02-02T04:21:19;101892.63;;;7.56;75.53
69574;BME280;62840;52.366;5.980;2023-02-02T04:23:44;101896.06;;;7.58;75.64
69574;BME280;62840;52.366;5.980;2023-02-02T04:26:10;101897.75;;;7.59;75.64
69574;BME280;62840;52.366;5.980;2023-02-02T04:28:38;101886.22;;;7.60;75.94
69574;BME280;62840;52.366;5.980;2023-02-02T04:31:04;101894.19;;;7.60;76.00
69574;BME280;62840;52.366;5.980;2023-02-02T04:33:30;101908.19;;;7.62;75.76
69574;BME280;62840;52.366;5.980;2023-02-02T04:35:56;101899.31;;;7.63;75.81
69574;BME280;62840;52.366;5.980;2023-02-02T04:38:21;101896.66;;;7.63;75.88
69574;BME280;62840;52.366;5.980;2023-02-02T04:40:47;101899.31;;;7.63;75.90
69574;BME280;62840;52.366;5.980;2023-02-02T04:43:13;101899.31;;;7.63;75.82
69574;BME280;62840;52.366;5.980;2023-02-02T04:45:42;101902.88;;;7.62;75.90
69574;BME280;62840;52.366;5.980;2023-02-02T04:48:08;101907.28;;;7.63;76.11
69574;BME280;62840;52.366;5.980;2023-02-02T04:50:34;101897.44;;;7.65;75.93
69574;BME280;62840;52.366;5.980;2023-02-02T04:53:00;101898.28;;;7.66;76.09
69574;BME280;62840;52.366;5.980;2023-02-02T04:55:26;101900.88;;;7.67;75.84
69574;BME280;62840;52.366;5.980;2023-02-02T04:57:51;101903.53;;;7.67;76.09
69574;BME280;62840;52.366;5.980;2023-02-02T05:00:18;101900.75;;;7.69;75.96
69574;BME280;62840;52.366;5.980;2023-02-02T05:02:46;101913.06;;;7.71;76.02
69574;BME280;62840;52.366;5.980;2023-02-02T05:05:13;101922.72;;;7.72;75.80
69574;BME280;62840;52.366;5.980;2023-02-02T05:07:39;101922.66;;;7.74;75.87
69574;BME280;62840;52.366;5.980;2023-02-02T05:10:06;101914.75;;;7.72;76.01
69574;BME280;62840;52.366;5.980;2023-02-02T05:12:33;101906.78;;;7.72;76.07
69574;BME280;62840;52.366;5.980;2023-02-02T05:14:59;101911.31;;;7.70;76.11
69574;BME280;62840;52.366;5.980;2023-02-02T05:17:25;101916.63;;;7.70;76.07
69574;BME280;62840;52.366;5.980;2023-02-02T05:19:53;101913.97;;;7.70;76.21
69574;BME280;62840;52.366;5.980;2023-02-02T05:22:19;101911.31;;;7.70;76.09
69574;BME280;62840;52.366;5.980;2023-02-02T05:24:45;101936.84;;;7.73;76.10
69574;BME280;62840;52.366;5.980;2023-02-02T05:27:11;101933.25;;;7.74;76.15
69574;BME280;62840;52.366;5.980;2023-02-02T05:29:36;101937.69;;;7.73;76.03
69574;BME280;62840;52.366;5.980;2023-02-02T05:32:02;101939.44;;;7.74;76.13
69574;BME280;62840;52.366;5.980;2023-02-02T05:34:29;101938.47;;;7.75;76.10
69574;BME280;62840;52.366;5.980;2023-02-02T05:36:57;101937.56;;;7.77;76.20
69574;BME280;62840;52.366;5.980;2023-02-02T05:39:23;101939.34;;;7.76;76.21
69574;BME280;62840;52.366;5.980;2023-02-02T05:41:48;101931.38;;;7.76;76.05
69574;BME280;62840;52.366;5.980;2023-02-02T05:44:15;101937.56;;;7.77;76.20
69574;BME280;62840;52.366;5.980;2023-02-02T05:46:41;101932.25;;;7.77;76.19
69574;BME280;62840;52.366;5.980;2023-02-02T05:49:07;101940.13;;;7.78;76.25
69574;BME280;62840;52.366;5.980;2023-02-02T05:51:39;101937.56;;;7.77;76.25
69574;BME280;62840;52.366;5.980;2023-02-02T05:54:12;101935.81;;;7.75;76.44
69574;BME280;62840;52.366;5.980;2023-02-02T05:56:37;101934.97;;;7.75;76.48
69574;BME280;62840;52.366;5.980;2023-02-02T05:59:03;101923.50;;;7.74;76.25
69574;BME280;62840;52.366;5.980;2023-02-02T06:01:29;101935.81;;;7.75;76.41
69574;BME280;62840;52.366;5.980;2023-02-02T06:03:55;101932.31;;;7.75;76.47
69574;BME280;62840;52.366;5.980;2023-02-02T06:06:20;101928.63;;;7.78;76.50
69574;BME280;62840;52.366;5.980;2023-02-02T06:08:46;101937.56;;;7.77;76.25
69574;BME280;62840;52.366;5.980;2023-02-02T06:11:16;101944.56;;;7.78;76.52
69574;BME280;62840;52.366;5.980;2023-02-02T06:13:43;101943.72;;;7.77;76.51
69574;BME280;62840;52.366;5.980;2023-02-02T06:16:09;101941.13;;;7.75;76.60
69574;BME280;62840;52.366;5.980;2023-02-02T06:18:36;101946.44;;;7.75;76.44
69574;BME280;62840;52.366;5.980;2023-02-02T06:21:03;101948.09;;;7.78;76.38
69574;BME280;62840;52.366;5.980;2023-02-02T06:23:31;101946.28;;;7.79;76.50
69574;BME280;62840;52.366;5.980;2023-02-02T06:25:57;101948.94;;;7.79;76.49
69574;BME280;62840;52.366;5.980;2023-02-02T06:28:26;101948.16;;;7.77;76.52
69574;BME280;62840;52.366;5.980;2023-02-02T06:30:51;101952.53;;;7.78;76.55
69574;BME280;62840;52.366;5.980;2023-02-02T06:33:17;101957.78;;;7.79;76.60
69574;BME280;62840;52.366;5.980;2023-02-02T06:35:43;101958.56;;;7.81;76.69
69574;BME280;62840;52.366;5.980;2023-02-02T06:38:09;101963.94;;;7.80;76.79
69574;BME280;62840;52.366;5.980;2023-02-02T06:40:34;101959.47;;;7.80;76.67
69574;BME280;62840;52.366;5.980;2023-02-02T06:43:01;101962.06;;;7.82;76.53
69574;BME280;62840;52.366;5.980;2023-02-02T06:45:30;101974.41;;;7.83;76.54
69574;BME280;62840;52.366;5.980;2023-02-02T06:47:58;101973.47;;;7.84;76.61
69574;BME280;62840;52.366;5.980;2023-02-02T06:50:24;101981.41;;;7.84;76.53
69574;BME280;62840;52.366;5.980;2023-02-02T06:52:51;101973.38;;;7.85;76.49
69574;BME280;62840;52.366;5.980;2023-02-02T06:55:18;101967.97;;;7.87;76.68
69574;BME280;62840;52.366;5.980;2023-02-02T06:57:45;101981.25;;;7.87;76.48
69574;BME280;62840;52.366;5.980;2023-02-02T07:00:12;101978.59;;;7.87;76.57
69574;BME280;62840;52.366;5.980;2023-02-02T07:02:43;101967.03;;;7.88;76.66
69574;BME280;62840;52.366;5.980;2023-02-02T07:05:09;101969.78;;;7.86;76.56
69574;BME280;62840;52.366;5.980;2023-02-02T07:07:35;101969.78;;;7.86;76.67
69574;BME280;62840;52.366;5.980;2023-02-02T07:10:01;101965.31;;;7.87;76.75
69574;BME280;62840;52.366;5.980;2023-02-02T07:12:27;101968.75;;;7.89;76.72
69574;BME280;62840;52.366;5.980;2023-02-02T07:14:52;101972.34;;;7.88;76.69
69574;BME280;62840;52.366;5.980;2023-02-02T07:17:18;101979.38;;;7.89;76.60
69574;BME280;62840;52.366;5.980;2023-02-02T07:19:47;101979.47;;;7.87;76.68
69574;BME280;62840;52.366;5.980;2023-02-02T07:22:13;101973.22;;;7.88;76.76
69574;BME280;62840;52.366;5.980;2023-02-02T07:24:39;101975.78;;;7.90;76.71
69574;BME280;62840;52.366;5.980;2023-02-02T07:27:04;101990.72;;;7.92;76.68
69574;BME280;62840;52.366;5.980;2023-02-02T07:29:30;101989.84;;;7.92;76.80
69574;BME280;62840;52.366;5.980;2023-02-02T07:31:56;101993.44;;;7.91;76.80
69574;BME280;62840;52.366;5.980;2023-02-02T07:34:22;101988.13;;;7.91;76.79
69574;BME280;62840;52.366;5.980;2023-02-02T07:36:51;101996.09;;;7.91;76.81
69574;BME280;62840;52.366;5.980;2023-02-02T07:39:16;102002.25;;;7.91;76.85
69574;BME280;62840;52.366;5.980;2023-02-02T07:41:42;102004.06;;;7.91;76.90
69574;BME280;62840;52.366;5.980;2023-02-02T07:44:11;102011.25;;;7.89;76.91
69574;BME280;62840;52.366;5.980;2023-02-02T07:46:38;102002.25;;;7.91;76.97
69574;BME280;62840;52.366;5.980;2023-02-02T07:49:04;102014.69;;;7.91;76.89
69574;BME280;62840;52.366;5.980;2023-02-02T07:51:29;102028.81;;;7.91;77.14
69574;BME280;62840;52.366;5.980;2023-02-02T07:53:58;102026.09;;;7.93;76.99
69574;BME280;62840;52.366;5.980;2023-02-02T07:56:25;102026.09;;;7.93;77.00
69574;BME280;62840;52.366;5.980;2023-02-02T07:58:52;102035.78;;;7.94;77.22
69574;BME280;62840;52.366;5.980;2023-02-02T08:01:19;102033.88;;;7.96;77.03
69574;BME280;62840;52.366;5.980;2023-02-02T08:03:45;102037.31;;;7.98;77.05
69574;BME280;62840;52.366;5.980;2023-02-02T08:06:14;102030.13;;;8.00;76.91
69574;BME280;62840;52.366;5.980;2023-02-02T08:08:44;102032.00;;;7.98;77.03
69574;BME280;62840;52.366;5.980;2023-02-02T08:11:15;102030.31;;;7.97;77.23
69574;BME280;62840;52.366;5.980;2023-02-02T08:13:43;102025.16;;;7.94;77.09
69574;BME280;62840;52.366;5.980;2023-02-02T08:16:12;102041.84;;;7.96;77.21
69574;BME280;62840;52.366;5.980;2023-02-02T08:18:38;102040.09;;;7.96;77.09
69574;BME280;62840;52.366;5.980;2023-02-02T08:21:06;102038.28;;;7.97;77.06
69574;BME280;62840;52.366;5.980;2023-02-02T08:23:32;102048.84;;;7.99;77.25
69574;BME280;62840;52.366;5.980;2023-02-02T08:26:05;102042.63;;;7.98;77.13
69574;BME280;62840;52.366;5.980;2023-02-02T08:28:35;102052.34;;;7.99;77.22
69574;BME280;62840;52.366;5.980;2023-02-02T08:31:07;102049.69;;;7.99;77.09
69574;BME280;62840;52.366;5.980;2023-02-02T08:33:34;102060.31;;;7.99;77.09
69574;BME280;62840;52.366;5.980;2023-02-02T08:36:00;102075.28;;;8.00;77.12
69574;BME280;62840;52.366;5.980;2023-02-02T08:38:26;102076.06;;;8.02;77.15
69574;BME280;62840;52.366;5.980;2023-02-02T08:40:52;102079.69;;;8.01;77.32
69574;BME280;62840;52.366;5.980;2023-02-02T08:43:18;102083.13;;;8.03;77.14
69574;BME280;62840;52.366;5.980;2023-02-02T08:45:46;102081.38;;;8.02;77.16
69574;BME280;62840;52.366;5.980;2023-02-02T08:48:12;102088.44;;;8.03;77.35
69574;BME280;62840;52.366;5.980;2023-02-02T08:50:38;102081.38;;;8.02;77.29
69574;BME280;62840;52.366;5.980;2023-02-02T08:53:03;102091.09;;;8.03;77.23
69574;BME280;62840;52.366;5.980;2023-02-02T08:55:29;102090.16;;;8.04;77.24
69574;BME280;62840;52.366;5.980;2023-02-02T08:57:55;102105.16;;;8.05;77.17
69574;BME280;62840;52.366;5.980;2023-02-02T09:00:21;102097.03;;;8.08;77.18
69574;BME280;62840;52.366;5.980;2023-02-02T09:02:51;102104.03;;;8.09;77.07
69574;BME280;62840;52.366;5.980;2023-02-02T09:05:17;102105.78;;;8.10;77.11
69574;BME280;62840;52.366;5.980;2023-02-02T09:07:43;102113.69;;;8.12;77.05
69574;BME280;62840;52.366;5.980;2023-02-02T09:10:09;102112.78;;;8.11;77.06
69574;BME280;62840;52.366;5.980;2023-02-02T09:12:35;102114.53;;;8.12;77.15
69574;BME280;62840;52.366;5.980;2023-02-02T09:15:01;102119.84;;;8.12;77.00
69574;BME280;62840;52.366;5.980;2023-02-02T09:17:26;102125.28;;;8.09;77.03
69574;BME280;62840;52.366;5.980;2023-02-02T09:19:55;102127.88;;;8.11;77.00
69574;BME280;62840;52.366;5.980;2023-02-02T09:22:20;102130.47;;;8.12;77.00
69574;BME280;62840;52.366;5.980;2023-02-02T09:24:46;102141.09;;;8.12;76.92
69574;BME280;62840;52.366;5.980;2023-02-02T09:27:12;102134.06;;;8.11;77.02
69574;BME280;62840;52.366;5.980;2023-02-02T09:29:38;102140.25;;;8.12;76.99
69574;BME280;62840;52.366;5.980;2023-02-02T09:32:04;102145.47;;;8.13;77.00
69574;BME280;62840;52.366;5.980;2023-02-02T09:34:30;102154.28;;;8.14;76.89
69574;BME280;62840;52.366;5.980;2023-02-02T09:36:58;102153.44;;;8.13;77.08
69574;BME280;62840;52.366;5.980;2023-02-02T09:39:24;102165.81;;;8.14;77.03
69574;BME280;62840;52.366;5.980;2023-02-02T09:42:05;102163.16;;;8.14;76.90
69574;BME280;62840;52.366;5.980;2023-02-02T09:44:52;102156.88;;;8.15;76.96
69574;BME280;62840;52.366;5.980;2023-02-02T09:47:24;102173.59;;;8.17;77.15
69574;BME280;62840;52.366;5.980;2023-02-02T09:50:04;102168.28;;;8.17;77.23
69574;BME280;62840;52.366;5.980;2023-02-02T09:52:47;102174.47;;;8.18;76.97
69574;BME280;62840;52.366;5.980;2023-02-02T09:55:27;102170.09;;;8.17;77.10
69574;BME280;62840;52.366;5.980;2023-02-02T09:58:02;102176.25;;;8.17;77.01
69574;BME280;62840;52.366;5.980;2023-02-02T10:00:37;102172.81;;;8.15;76.95
69574;BME280;62840;52.366;5.980;2023-02-02T10:03:14;102175.47;;;8.15;76.98
69574;BME280;62840;52.366;5.980;2023-02-02T10:05:50;102180.72;;;8.17;77.05
69574;BME280;62840;52.366;5.980;2023-02-02T10:08:27;102182.34;;;8.20;77.09
69574;BME280;62840;52.366;5.980;2023-02-02T10:11:00;102185.03;;;8.20;77.19
69574;BME280;62840;52.366;5.980;2023-02-02T10:13:38;102183.16;;;8.22;76.97
69574;BME280;62840;52.366;5.980;2023-02-02T10:16:13;102188.28;;;8.25;77.13
69574;BME280;62840;52.366;5.980;2023-02-02T10:18:45;102189.25;;;8.24;77.12
69574;BME280;62840;52.366;5.980;2023-02-02T10:21:24;102198.78;;;8.28;77.08
69574;BME280;62840;52.366;5.980;2023-02-02T10:23:57;102191.56;;;8.30;77.26
69574;BME280;62840;52.366;5.980;2023-02-02T10:26:27;102198.63;;;8.31;77.10
69574;BME280;62840;52.366;5.980;2023-02-02T10:29:07;102200.19;;;8.35;77.07
69574;BME280;62840;52.366;5.980;2023-02-02T10:31:42;102212.44;;;8.37;77.19
69574;BME280;62840;52.366;5.980;2023-02-02T10:34:16;102217.69;;;8.39;77.04
69574;BME280;62840;52.366;5.980;2023-02-02T10:37:09;102205.94;;;8.43;77.12
69574;BME280;62840;52.366;5.980;2023-02-02T10:40:07;102215.66;;;8.44;77.03
69574;BME280;62840;52.366;5.980;2023-02-02T10:42:55;102219.25;;;8.43;77.10
69574;BME280;62840;52.366;5.980;2023-02-02T10:45:53;102215.66;;;8.44;77.01
69574;BME280;62840;52.366;5.980;2023-02-02T10:48:25;102208.47;;;8.46;77.01
69574;BME280;62840;52.366;5.980;2023-02-02T10:50:55;102215.50;;;8.47;77.09
69574;BME280;62840;52.366;5.980;2023-02-02T10:53:27;102217.22;;;8.48;77.08
69574;BME280;62840;52.366;5.980;2023-02-02T10:55:59;102210.03;;;8.50;76.97
69574;BME280;62840;52.366;5.980;2023-02-02T10:58:36;102209.06;;;8.51;76.99
69574;BME280;62840;52.366;5.980;2023-02-02T11:01:08;102207.19;;;8.53;77.14
69574;BME280;62840;52.366;5.980;2023-02-02T11:03:35;102215.00;;;8.56;77.05
69574;BME280;62840;52.366;5.980;2023-02-02T11:06:05;102206.09;;;8.57;77.00
69574;BME280;62840;52.366;5.980;2023-02-02T11:08:34;102206.09;;;8.57;77.09
69574;BME280;62840;52.366;5.980;2023-02-02T11:11:12;102207.81;;;8.58;76.86
69574;BME280;62840;52.366;5.980;2023-02-02T11:13:46;102213.00;;;8.62;77.10
69574;BME280;62840;52.366;5.980;2023-02-02T11:16:25;102201.41;;;8.63;76.98
69574;BME280;62840;52.366;5.980;2023-02-02T11:18:53;102209.38;;;8.63;77.01
69574;BME280;62840;52.366;5.980;2023-02-02T11:21:22;102208.44;;;8.64;76.92
69574;BME280;62840;52.366;5.980;2023-02-02T11:23:52;102202.19;;;8.65;76.93
69574;BME280;62840;52.366;5.980;2023-02-02T11:26:23;102205.63;;;8.67;77.01
69574;BME280;62840;52.366;5.980;2023-02-02T11:28:51;102203.88;;;8.66;76.96
69574;BME280;62840;52.366;5.980;2023-02-02T11:31:33;102205.44;;;8.70;76.97
69574;BME280;62840;52.366;5.980;2023-02-02T11:34:15;102208.09;;;8.70;76.99
69574;BME280;62840;52.366;5.980;2023-02-02T11:37:01;102221.41;;;8.70;76.99
69574;BME280;62840;52.366;5.980;2023-02-02T11:39:35;102221.41;;;8.70;76.87
69574;BME280;62840;52.366;5.980;2023-02-02T11:42:05;102224.00;;;8.71;76.87
69574;BME280;62840;52.366;5.980;2023-02-02T11:44:37;102217.97;;;8.68;76.88
69574;BME280;62840;52.366;5.980;2023-02-02T11:47:04;102217.97;;;8.68;76.94
69574;BME280;62840;52.366;5.980;2023-02-02T11:49:36;102220.72;;;8.66;76.98
69574;BME280;62840;52.366;5.980;2023-02-02T11:52:14;102222.34;;;8.69;76.95
69574;BME280;62840;52.366;5.980;2023-02-02T11:54:46;102224.06;;;8.70;76.95
69574;BME280;62840;52.366;5.980;2023-02-02T11:57:20;102217.81;;;8.71;76.94
69574;BME280;62840;52.366;5.980;2023-02-02T11:59:48;102213.34;;;8.71;76.89
69574;BME280;62840;52.366;5.980;2023-02-02T12:02:27;102222.25;;;8.70;76.67
69574;BME280;62840;52.366;5.980;2023-02-02T12:05:30;102224.84;;;8.72;76.95
69574;BME280;62840;52.366;5.980;2023-02-02T12:07:58;102216.00;;;8.71;76.87
69574;BME280;62840;52.366;5.980;2023-02-02T12:10:27;102216.88;;;8.72;76.86
69574;BME280;62840;52.366;5.980;2023-02-02T12:13:08;102215.94;;;8.73;76.97
69574;BME280;62840;52.366;5.980;2023-02-02T12:15:46;102211.47;;;8.73;77.01
69574;BME280;62840;52.366;5.980;2023-02-02T12:18:32;102216.72;;;8.75;76.93
69574;BME280;62840;52.366;5.980;2023-02-02T12:21:15;102207.00;;;8.74;77.01
69574;BME280;62840;52.366;5.980;2023-02-02T12:23:59;102210.44;;;8.76;76.89
69574;BME280;62840;52.366;5.980;2023-02-02T12:26:39;102196.19;;;8.77;76.87
69574;BME280;62840;52.366;5.980;2023-02-02T12:29:25;102196.06;;;8.80;76.93
69574;BME280;62840;52.366;5.980;2023-02-02T12:32:09;102192.44;;;8.81;76.77
69574;BME280;62840;52.366;5.980;2023-02-02T12:34:55;102186.25;;;8.80;76.79
69574;BME280;62840;52.366;5.980;2023-02-02T12:37:46;102185.41;;;8.80;76.81
69574;BME280;62840;52.366;5.980;2023-02-02T12:40:28;102181.00;;;8.79;76.79
69574;BME280;62840;52.366;5.980;2023-02-02T12:43:17;102188.06;;;8.80;76.95
69574;BME280;62840;52.366;5.980;2023-02-02T12:45:59;102193.22;;;8.83;76.90
69574;BME280;62840;52.366;5.980;2023-02-02T12:48:45;102185.31;;;8.82;76.82
69574;BME280;62840;52.366;5.980;2023-02-02T12:51:41;102179.13;;;8.81;76.92
69574;BME280;62840;52.366;5.980;2023-02-02T12:54:36;102176.66;;;8.78;77.04
69574;BME280;62840;52.366;5.980;2023-02-02T12:57:24;102190.88;;;8.77;76.80
69574;BME280;62840;52.366;5.980;2023-02-02T13:00:11;102177.56;;;8.77;76.76
69574;BME280;62840;52.366;5.980;2023-02-02T13:03:02;102189.00;;;8.79;76.91
69574;BME280;62840;52.366;5.980;2023-02-02T13:05:54;102187.13;;;8.81;76.77
69574;BME280;62840;52.366;5.980;2023-02-02T13:08:32;102187.13;;;8.81;76.82
69574;BME280;62840;52.366;5.980;2023-02-02T13:11:10;102189.88;;;8.79;76.85
69574;BME280;62840;52.366;5.980;2023-02-02T13:13:41;102187.22;;;8.79;76.82
69574;BME280;62840;52.366;5.980;2023-02-02T13:16:10;102193.47;;;8.78;76.72
69574;BME280;62840;52.366;5.980;2023-02-02T13:18:47;102200.53;;;8.79;76.84
69574;BME280;62840;52.366;5.980;2023-02-02T13:21:20;102204.94;;;8.79;76.82